sensor_id;sensor_type;location;lat;lon;timestamp;P1;durP1;ratioP1;P2;durP2;ratioP2
67861;SDS011;54665;51.462;6.698;2022-07-23T00:02:00;12.77;;;6.50;;
67861;SDS011;54665;51.462;6.698;2022-07-23T00:04:28;12.75;;;6.13;;
67861;SDS011;54665;51.462;6.698;2022-07-23T00:06:53;14.50;;;6.67;;
67861;SDS011;54665;51.462;6.698;2022-07-23T00:09:19;13.07;;;5.83;;
67861;SDS011;54665;51.462;6.698;2022-07-23T00:11:44;13.80;;;5.93;;
67861;SDS011;54665;51.462;6.698;2022-07-23T00:14:10;11.57;;;6.07;;
67861;SDS011;54665;51.462;6.698;2022-07-23T00:16:35;11.33;;;6.20;;
67861;SDS011;54665;51.462;6.698;2022-07-23T00:19:00;13.03;;;5.80;;
67861;SDS011;54665;51.462;6.698;2022-07-23T00:21:27;11.65;;;6.03;;
67861;SDS011;54665;51.462;6.698;2022-07-23T00:23:53;12.20;;;6.17;;
67861;SDS011;54665;51.462;6.698;2022-07-23T00:26:18;11.50;;;5.73;;
67861;SDS011;54665;51.462;6.698;2022-07-23T00:28:43;11.57;;;5.90;;
67861;SDS011;54665;51.462;6.698;2022-07-23T00:31:09;11.67;;;6.00;;
67861;SDS011;54665;51.462;6.698;2022-07-23T00:33:34;11.13;;;5.70;;
67861;SDS011;54665;51.462;6.698;2022-07-23T00:35:59;11.20;;;5.70;;
67861;SDS011;54665;51.462;6.698;2022-07-23T00:38:25;10.80;;;5.40;;
67861;SDS011;54665;51.462;6.698;2022-07-23T00:40:50;13.43;;;5.93;;
67861;SDS011;54665;51.462;6.698;2022-07-23T00:43:16;10.47;;;5.50;;
67861;SDS011;54665;51.462;6.698;2022-07-23T00:45:41;10.13;;;5.50;;
67861;SDS011;54665;51.462;6.698;2022-07-23T00:48:06;10.67;;;5.67;;
67861;SDS011;54665;51.462;6.698;2022-07-23T00:50:32;11.10;;;5.97;;
67861;SDS011;54665;51.462;6.698;2022-07-23T00:52:58;12.50;;;6.30;;
67861;SDS011;54665;51.462;6.698;2022-07-23T00:55:23;11.47;;;6.50;;
67861;SDS011;54665;51.462;6.698;2022-07-23T00:57:49;13.63;;;6.47;;
67861;SDS011;54665;51.462;6.698;2022-07-23T01:00:15;12.57;;;6.40;;
67861;SDS011;54665;51.462;6.698;2022-07-23T01:02:41;14.60;;;6.77;;
67861;SDS011;54665;51.462;6.698;2022-07-23T01:05:07;13.63;;;6.85;;
67861;SDS011;54665;51.462;6.698;2022-07-23T01:07:33;19.85;;;7.88;;
67861;SDS011;54665;51.462;6.698;2022-07-23T01:09:59;15.57;;;7.17;;
67861;SDS011;54665;51.462;6.698;2022-07-23T01:12:25;13.90;;;7.82;;
67861;SDS011;54665;51.462;6.698;2022-07-23T01:14:58;14.07;;;7.60;;
67861;SDS011;54665;51.462;6.698;2022-07-23T01:17:25;16.63;;;7.70;;
67861;SDS011;54665;51.462;6.698;2022-07-23T01:19:51;13.50;;;7.15;;
67861;SDS011;54665;51.462;6.698;2022-07-23T01:22:18;12.77;;;7.00;;
67861;SDS011;54665;51.462;6.698;2022-07-23T01:24:44;15.50;;;7.22;;
67861;SDS011;54665;51.462;6.698;2022-07-23T01:27:10;13.30;;;6.85;;
67861;SDS011;54665;51.462;6.698;2022-07-23T01:29:37;13.47;;;6.90;;
67861;SDS011;54665;51.462;6.698;2022-07-23T01:32:09;15.77;;;7.32;;
67861;SDS011;54665;51.462;6.698;2022-07-23T01:34:34;15.93;;;8.13;;
67861;SDS011;54665;51.462;6.698;2022-07-23T01:37:00;17.83;;;7.78;;
67861;SDS011;54665;51.462;6.698;2022-07-23T01:39:25;19.73;;;7.73;;
67861;SDS011;54665;51.462;6.698;2022-07-23T01:41:52;17.15;;;8.40;;
67861;SDS011;54665;51.462;6.698;2022-07-23T01:44:18;21.63;;;9.02;;
67861;SDS011;54665;51.462;6.698;2022-07-23T01:46:44;16.80;;;7.73;;
67861;SDS011;54665;51.462;6.698;2022-07-23T01:49:10;18.30;;;8.00;;
67861;SDS011;54665;51.462;6.698;2022-07-23T01:51:53;14.38;;;7.25;;
67861;SDS011;54665;51.462;6.698;2022-07-23T01:54:30;15.00;;;7.95;;
67861;SDS011;54665;51.462;6.698;2022-07-23T01:56:58;16.60;;;7.50;;
67861;SDS011;54665;51.462;6.698;2022-07-23T01:59:24;17.67;;;7.68;;
67861;SDS011;54665;51.462;6.698;2022-07-23T02:01:50;16.40;;;7.90;;
67861;SDS011;54665;51.462;6.698;2022-07-23T02:04:17;16.75;;;7.47;;
67861;SDS011;54665;51.462;6.698;2022-07-23T02:06:43;15.13;;;7.77;;
67861;SDS011;54665;51.462;6.698;2022-07-23T02:09:09;17.15;;;7.72;;
67861;SDS011;54665;51.462;6.698;2022-07-23T02:11:34;15.97;;;7.73;;
67861;SDS011;54665;51.462;6.698;2022-07-23T02:13:59;16.83;;;7.97;;
67861;SDS011;54665;51.462;6.698;2022-07-23T02:16:25;19.53;;;8.40;;
67861;SDS011;54665;51.462;6.698;2022-07-23T02:18:50;16.92;;;8.57;;
67861;SDS011;54665;51.462;6.698;2022-07-23T02:21:16;21.50;;;9.00;;
67861;SDS011;54665;51.462;6.698;2022-07-23T02:23:41;20.23;;;8.43;;
67861;SDS011;54665;51.462;6.698;2022-07-23T02:26:07;23.63;;;9.17;;
67861;SDS011;54665;51.462;6.698;2022-07-23T02:28:32;18.98;;;8.70;;
67861;SDS011;54665;51.462;6.698;2022-07-23T02:30:58;19.93;;;8.90;;
67861;SDS011;54665;51.462;6.698;2022-07-23T02:33:23;19.70;;;9.10;;
67861;SDS011;54665;51.462;6.698;2022-07-23T02:35:49;20.58;;;9.43;;
67861;SDS011;54665;51.462;6.698;2022-07-23T02:38:18;19.42;;;8.90;;
67861;SDS011;54665;51.462;6.698;2022-07-23T02:40:44;18.20;;;8.77;;
67861;SDS011;54665;51.462;6.698;2022-07-23T02:43:10;18.53;;;8.73;;
67861;SDS011;54665;51.462;6.698;2022-07-23T02:45:37;19.98;;;9.13;;
67861;SDS011;54665;51.462;6.698;2022-07-23T02:48:02;19.47;;;9.20;;
67861;SDS011;54665;51.462;6.698;2022-07-23T02:50:28;20.27;;;9.02;;
67861;SDS011;54665;51.462;6.698;2022-07-23T02:52:56;22.92;;;9.40;;
67861;SDS011;54665;51.462;6.698;2022-07-23T02:55:23;24.48;;;9.35;;
67861;SDS011;54665;51.462;6.698;2022-07-23T02:57:48;27.00;;;9.47;;
67861;SDS011;54665;51.462;6.698;2022-07-23T03:00:14;28.33;;;9.70;;
67861;SDS011;54665;51.462;6.698;2022-07-23T03:02:39;24.00;;;9.52;;
67861;SDS011;54665;51.462;6.698;2022-07-23T03:05:05;26.80;;;9.40;;
67861;SDS011;54665;51.462;6.698;2022-07-23T03:07:33;27.98;;;9.73;;
67861;SDS011;54665;51.462;6.698;2022-07-23T03:09:58;22.87;;;9.27;;
67861;SDS011;54665;51.462;6.698;2022-07-23T03:12:23;26.37;;;10.00;;
67861;SDS011;54665;51.462;6.698;2022-07-23T03:14:49;28.98;;;10.23;;
67861;SDS011;54665;51.462;6.698;2022-07-23T03:17:14;24.17;;;9.20;;
67861;SDS011;54665;51.462;6.698;2022-07-23T03:19:40;26.43;;;9.73;;
67861;SDS011;54665;51.462;6.698;2022-07-23T03:22:06;25.65;;;9.18;;
67861;SDS011;54665;51.462;6.698;2022-07-23T03:24:32;23.58;;;9.20;;
67861;SDS011;54665;51.462;6.698;2022-07-23T03:27:16;23.10;;;9.40;;
67861;SDS011;54665;51.462;6.698;2022-07-23T03:29:41;25.70;;;9.38;;
67861;SDS011;54665;51.462;6.698;2022-07-23T03:32:07;24.17;;;9.47;;
67861;SDS011;54665;51.462;6.698;2022-07-23T03:34:32;31.47;;;10.77;;
67861;SDS011;54665;51.462;6.698;2022-07-23T03:36:58;27.73;;;10.67;;
67861;SDS011;54665;51.462;6.698;2022-07-23T03:39:23;35.65;;;10.57;;
67861;SDS011;54665;51.462;6.698;2022-07-23T03:41:49;28.97;;;11.07;;
67861;SDS011;54665;51.462;6.698;2022-07-23T03:44:14;30.23;;;10.83;;
67861;SDS011;54665;51.462;6.698;2022-07-23T03:46:41;29.38;;;10.25;;
67861;SDS011;54665;51.462;6.698;2022-07-23T03:49:06;27.60;;;10.43;;
67861;SDS011;54665;51.462;6.698;2022-07-23T03:51:33;35.13;;;11.20;;
67861;SDS011;54665;51.462;6.698;2022-07-23T03:53:58;31.73;;;10.63;;
67861;SDS011;54665;51.462;6.698;2022-07-23T03:56:24;30.15;;;10.80;;
67861;SDS011;54665;51.462;6.698;2022-07-23T03:58:49;30.67;;;10.40;;
67861;SDS011;54665;51.462;6.698;2022-07-23T04:01:15;33.80;;;10.15;;
67861;SDS011;54665;51.462;6.698;2022-07-23T04:03:41;29.57;;;10.63;;
67861;SDS011;54665;51.462;6.698;2022-07-23T04:06:06;30.23;;;11.03;;
67861;SDS011;54665;51.462;6.698;2022-07-23T04:08:33;25.08;;;10.15;;
67861;SDS011;54665;51.462;6.698;2022-07-23T04:11:01;26.40;;;10.50;;
67861;SDS011;54665;51.462;6.698;2022-07-23T04:13:26;26.10;;;10.07;;
67861;SDS011;54665;51.462;6.698;2022-07-23T04:15:51;23.20;;;9.90;;
67861;SDS011;54665;51.462;6.698;2022-07-23T04:18:17;20.83;;;9.65;;
67861;SDS011;54665;51.462;6.698;2022-07-23T04:20:51;22.77;;;9.48;;
67861;SDS011;54665;51.462;6.698;2022-07-23T04:23:17;21.30;;;9.70;;
67861;SDS011;54665;51.462;6.698;2022-07-23T04:25:43;18.27;;;8.93;;
67861;SDS011;54665;51.462;6.698;2022-07-23T04:28:09;19.97;;;8.80;;
67861;SDS011;54665;51.462;6.698;2022-07-23T04:30:35;19.98;;;9.15;;
67861;SDS011;54665;51.462;6.698;2022-07-23T04:33:01;22.00;;;8.98;;
67861;SDS011;54665;51.462;6.698;2022-07-23T04:35:27;18.47;;;8.90;;
67861;SDS011;54665;51.462;6.698;2022-07-23T04:37:58;20.75;;;9.32;;
67861;SDS011;54665;51.462;6.698;2022-07-23T04:40:24;22.42;;;8.85;;
67861;SDS011;54665;51.462;6.698;2022-07-23T04:42:50;19.75;;;8.70;;
67861;SDS011;54665;51.462;6.698;2022-07-23T04:45:17;17.47;;;8.90;;
67861;SDS011;54665;51.462;6.698;2022-07-23T04:47:43;20.63;;;9.50;;
67861;SDS011;54665;51.462;6.698;2022-07-23T04:50:10;20.73;;;9.43;;
67861;SDS011;54665;51.462;6.698;2022-07-23T04:52:40;22.30;;;9.48;;
67861;SDS011;54665;51.462;6.698;2022-07-23T04:55:06;18.40;;;8.80;;
67861;SDS011;54665;51.462;6.698;2022-07-23T04:57:32;18.43;;;9.03;;
67861;SDS011;54665;51.462;6.698;2022-07-23T04:59:58;16.60;;;8.70;;
67861;SDS011;54665;51.462;6.698;2022-07-23T05:02:24;21.47;;;8.83;;
67861;SDS011;54665;51.462;6.698;2022-07-23T05:04:49;17.53;;;8.50;;
67861;SDS011;54665;51.462;6.698;2022-07-23T05:07:15;18.92;;;9.20;;
67861;SDS011;54665;51.462;6.698;2022-07-23T05:09:40;18.43;;;8.80;;
67861;SDS011;54665;51.462;6.698;2022-07-23T05:12:06;17.67;;;8.57;;
67861;SDS011;54665;51.462;6.698;2022-07-23T05:14:33;16.23;;;7.77;;
67861;SDS011;54665;51.462;6.698;2022-07-23T05:16:59;15.70;;;8.23;;
67861;SDS011;54665;51.462;6.698;2022-07-23T05:19:25;17.55;;;8.18;;
67861;SDS011;54665;51.462;6.698;2022-07-23T05:21:51;17.73;;;8.70;;
67861;SDS011;54665;51.462;6.698;2022-07-23T05:24:17;16.77;;;8.30;;
67861;SDS011;54665;51.462;6.698;2022-07-23T05:26:42;19.63;;;8.50;;
67861;SDS011;54665;51.462;6.698;2022-07-23T05:29:08;16.83;;;8.50;;
67861;SDS011;54665;51.462;6.698;2022-07-23T05:31:34;17.20;;;7.97;;
67861;SDS011;54665;51.462;6.698;2022-07-23T05:34:00;17.60;;;8.60;;
67861;SDS011;54665;51.462;6.698;2022-07-23T05:36:26;18.13;;;8.50;;
67861;SDS011;54665;51.462;6.698;2022-07-23T05:38:54;19.53;;;8.70;;
67861;SDS011;54665;51.462;6.698;2022-07-23T05:41:19;18.50;;;8.60;;
67861;SDS011;54665;51.462;6.698;2022-07-23T05:43:48;15.35;;;8.25;;
67861;SDS011;54665;51.462;6.698;2022-07-23T05:46:13;15.70;;;8.70;;
67861;SDS011;54665;51.462;6.698;2022-07-23T05:48:41;16.05;;;8.55;;
67861;SDS011;54665;51.462;6.698;2022-07-23T05:51:21;15.60;;;8.15;;
67861;SDS011;54665;51.462;6.698;2022-07-23T05:53:49;16.55;;;9.00;;
67861;SDS011;54665;51.462;6.698;2022-07-23T05:56:19;19.60;;;9.02;;
67861;SDS011;54665;51.462;6.698;2022-07-23T05:58:44;16.60;;;9.23;;
67861;SDS011;54665;51.462;6.698;2022-07-23T06:01:11;15.82;;;8.95;;
67861;SDS011;54665;51.462;6.698;2022-07-23T06:03:47;15.70;;;8.68;;
67861;SDS011;54665;51.462;6.698;2022-07-23T06:06:13;16.33;;;8.77;;
67861;SDS011;54665;51.462;6.698;2022-07-23T06:08:42;16.17;;;9.02;;
67861;SDS011;54665;51.462;6.698;2022-07-23T06:11:10;18.23;;;9.20;;
67861;SDS011;54665;51.462;6.698;2022-07-23T06:13:36;15.87;;;8.90;;
67861;SDS011;54665;51.462;6.698;2022-07-23T06:16:01;16.67;;;8.50;;
67861;SDS011;54665;51.462;6.698;2022-07-23T06:18:28;15.07;;;8.15;;
67861;SDS011;54665;51.462;6.698;2022-07-23T06:20:54;14.70;;;7.90;;
67861;SDS011;54665;51.462;6.698;2022-07-23T06:23:19;11.93;;;7.05;;
67861;SDS011;54665;51.462;6.698;2022-07-23T06:25:45;11.30;;;7.00;;
67861;SDS011;54665;51.462;6.698;2022-07-23T06:28:10;13.87;;;7.40;;
67861;SDS011;54665;51.462;6.698;2022-07-23T06:30:36;12.98;;;6.80;;
67861;SDS011;54665;51.462;6.698;2022-07-23T06:33:02;10.90;;;6.67;;
67861;SDS011;54665;51.462;6.698;2022-07-23T06:35:28;12.63;;;6.53;;
67861;SDS011;54665;51.462;6.698;2022-07-23T06:37:53;11.15;;;5.97;;
67861;SDS011;54665;51.462;6.698;2022-07-23T06:40:20;11.73;;;6.33;;
67861;SDS011;54665;51.462;6.698;2022-07-23T06:42:46;11.73;;;6.45;;
67861;SDS011;54665;51.462;6.698;2022-07-23T06:45:16;11.02;;;5.82;;
67861;SDS011;54665;51.462;6.698;2022-07-23T06:47:42;12.07;;;6.57;;
67861;SDS011;54665;51.462;6.698;2022-07-23T06:50:08;9.32;;;5.88;;
67861;SDS011;54665;51.462;6.698;2022-07-23T06:52:33;10.03;;;6.40;;
67861;SDS011;54665;51.462;6.698;2022-07-23T06:54:59;12.13;;;6.72;;
67861;SDS011;54665;51.462;6.698;2022-07-23T06:57:24;10.67;;;6.07;;
67861;SDS011;54665;51.462;6.698;2022-07-23T06:59:50;11.32;;;5.80;;
67861;SDS011;54665;51.462;6.698;2022-07-23T07:02:16;11.00;;;5.93;;
67861;SDS011;54665;51.462;6.698;2022-07-23T07:04:42;10.30;;;5.93;;
67861;SDS011;54665;51.462;6.698;2022-07-23T07:07:07;9.80;;;5.40;;
67861;SDS011;54665;51.462;6.698;2022-07-23T07:09:33;8.00;;;5.33;;
67861;SDS011;54665;51.462;6.698;2022-07-23T07:11:58;9.93;;;5.37;;
67861;SDS011;54665;51.462;6.698;2022-07-23T07:14:23;9.57;;;5.55;;
67861;SDS011;54665;51.462;6.698;2022-07-23T07:16:49;9.37;;;5.30;;
67861;SDS011;54665;51.462;6.698;2022-07-23T07:19:14;8.67;;;4.60;;
67861;SDS011;54665;51.462;6.698;2022-07-23T07:21:40;10.57;;;5.50;;
67861;SDS011;54665;51.462;6.698;2022-07-23T07:24:05;8.02;;;4.82;;
67861;SDS011;54665;51.462;6.698;2022-07-23T07:26:31;9.87;;;4.97;;
67861;SDS011;54665;51.462;6.698;2022-07-23T07:28:57;9.27;;;5.30;;
67861;SDS011;54665;51.462;6.698;2022-07-23T07:31:22;8.33;;;4.60;;
67861;SDS011;54665;51.462;6.698;2022-07-23T07:33:48;9.60;;;4.40;;
67861;SDS011;54665;51.462;6.698;2022-07-23T07:36:13;7.13;;;4.30;;
67861;SDS011;54665;51.462;6.698;2022-07-23T07:38:39;7.93;;;4.10;;
67861;SDS011;54665;51.462;6.698;2022-07-23T07:41:04;6.80;;;3.60;;
67861;SDS011;54665;51.462;6.698;2022-07-23T07:43:30;6.28;;;3.70;;
67861;SDS011;54665;51.462;6.698;2022-07-23T07:45:55;9.33;;;4.37;;
67861;SDS011;54665;51.462;6.698;2022-07-23T07:48:20;6.23;;;3.87;;
67861;SDS011;54665;51.462;6.698;2022-07-23T07:50:46;7.10;;;4.20;;
67861;SDS011;54665;51.462;6.698;2022-07-23T07:53:11;6.93;;;4.00;;
67861;SDS011;54665;51.462;6.698;2022-07-23T07:55:36;5.80;;;3.90;;
67861;SDS011;54665;51.462;6.698;2022-07-23T07:58:02;12.37;;;6.83;;
67861;SDS011;54665;51.462;6.698;2022-07-23T08:00:28;6.77;;;4.00;;
67861;SDS011;54665;51.462;6.698;2022-07-23T08:02:53;6.13;;;3.63;;
67861;SDS011;54665;51.462;6.698;2022-07-23T08:05:23;7.17;;;4.33;;
67861;SDS011;54665;51.462;6.698;2022-07-23T08:07:50;6.28;;;4.05;;
67861;SDS011;54665;51.462;6.698;2022-07-23T08:10:15;5.70;;;3.78;;
67861;SDS011;54665;51.462;6.698;2022-07-23T08:12:43;6.50;;;4.30;;
67861;SDS011;54665;51.462;6.698;2022-07-23T08:15:17;7.65;;;4.57;;
67861;SDS011;54665;51.462;6.698;2022-07-23T08:17:43;5.82;;;4.30;;
67861;SDS011;54665;51.462;6.698;2022-07-23T08:20:10;6.43;;;4.18;;
67861;SDS011;54665;51.462;6.698;2022-07-23T08:22:47;7.65;;;4.30;;
67861;SDS011;54665;51.462;6.698;2022-07-23T08:25:21;7.30;;;4.70;;
67861;SDS011;54665;51.462;6.698;2022-07-23T08:27:47;7.07;;;4.10;;
67861;SDS011;54665;51.462;6.698;2022-07-23T08:30:14;6.72;;;3.83;;
67861;SDS011;54665;51.462;6.698;2022-07-23T08:32:48;6.45;;;4.28;;
67861;SDS011;54665;51.462;6.698;2022-07-23T08:35:15;7.55;;;4.07;;
67861;SDS011;54665;51.462;6.698;2022-07-23T08:37:41;6.13;;;3.70;;
67861;SDS011;54665;51.462;6.698;2022-07-23T08:40:06;6.68;;;3.50;;
67861;SDS011;54665;51.462;6.698;2022-07-23T08:42:32;6.05;;;3.30;;
67861;SDS011;54665;51.462;6.698;2022-07-23T08:45:00;6.00;;;3.50;;
67861;SDS011;54665;51.462;6.698;2022-07-23T08:47:27;4.53;;;3.15;;
67861;SDS011;54665;51.462;6.698;2022-07-23T08:49:53;6.63;;;3.63;;
67861;SDS011;54665;51.462;6.698;2022-07-23T08:52:19;6.05;;;3.20;;
67861;SDS011;54665;51.462;6.698;2022-07-23T08:54:45;4.50;;;2.88;;
67861;SDS011;54665;51.462;6.698;2022-07-23T08:57:12;5.27;;;3.10;;
67861;SDS011;54665;51.462;6.698;2022-07-23T08:59:37;4.40;;;2.80;;
67861;SDS011;54665;51.462;6.698;2022-07-23T09:02:03;4.97;;;2.83;;
67861;SDS011;54665;51.462;6.698;2022-07-23T09:04:30;4.35;;;2.50;;
67861;SDS011;54665;51.462;6.698;2022-07-23T09:06:56;5.03;;;3.00;;
67861;SDS011;54665;51.462;6.698;2022-07-23T09:09:21;5.00;;;3.22;;
67861;SDS011;54665;51.462;6.698;2022-07-23T09:11:48;6.50;;;2.90;;
67861;SDS011;54665;51.462;6.698;2022-07-23T09:14:37;4.68;;;2.88;;
67861;SDS011;54665;51.462;6.698;2022-07-23T09:17:10;4.15;;;2.80;;
67861;SDS011;54665;51.462;6.698;2022-07-23T09:19:40;5.68;;;2.97;;
67861;SDS011;54665;51.462;6.698;2022-07-23T09:22:23;5.50;;;2.80;;
67861;SDS011;54665;51.462;6.698;2022-07-23T09:30:22;5.38;;;2.88;;
67861;SDS011;54665;51.462;6.698;2022-07-23T09:33:03;4.53;;;3.10;;
67861;SDS011;54665;51.462;6.698;2022-07-23T09:38:12;5.22;;;3.20;;
67861;SDS011;54665;51.462;6.698;2022-07-23T09:40:38;4.90;;;2.67;;
67861;SDS011;54665;51.462;6.698;2022-07-23T09:43:03;3.77;;;2.80;;
67861;SDS011;54665;51.462;6.698;2022-07-23T09:45:29;5.93;;;3.10;;
67861;SDS011;54665;51.462;6.698;2022-07-23T09:48:14;5.28;;;2.90;;
67861;SDS011;54665;51.462;6.698;2022-07-23T09:50:41;5.55;;;3.03;;
67861;SDS011;54665;51.462;6.698;2022-07-23T09:53:08;5.00;;;3.07;;
67861;SDS011;54665;51.462;6.698;2022-07-23T09:55:35;4.22;;;2.90;;
67861;SDS011;54665;51.462;6.698;2022-07-23T09:58:02;6.50;;;3.00;;
67861;SDS011;54665;51.462;6.698;2022-07-23T10:00:28;5.15;;;3.00;;
67861;SDS011;54665;51.462;6.698;2022-07-23T10:02:55;4.80;;;3.00;;
67861;SDS011;54665;51.462;6.698;2022-07-23T10:05:28;5.20;;;2.60;;
67861;SDS011;54665;51.462;6.698;2022-07-23T10:08:13;3.65;;;2.20;;
67861;SDS011;54665;51.462;6.698;2022-07-23T10:11:01;3.67;;;2.60;;
67861;SDS011;54665;51.462;6.698;2022-07-23T10:13:31;4.97;;;2.88;;
67861;SDS011;54665;51.462;6.698;2022-07-23T10:16:16;4.70;;;2.60;;
67861;SDS011;54665;51.462;6.698;2022-07-23T10:18:43;4.20;;;2.55;;
67861;SDS011;54665;51.462;6.698;2022-07-23T10:21:09;6.18;;;2.67;;
67861;SDS011;54665;51.462;6.698;2022-07-23T10:23:37;3.83;;;2.40;;
67861;SDS011;54665;51.462;6.698;2022-07-23T10:36:59;4.50;;;2.30;;
67861;SDS011;54665;51.462;6.698;2022-07-23T10:39:33;4.20;;;2.20;;
67861;SDS011;54665;51.462;6.698;2022-07-23T10:42:09;3.85;;;2.30;;
67861;SDS011;54665;51.462;6.698;2022-07-23T10:44:42;5.25;;;2.20;;
67861;SDS011;54665;51.462;6.698;2022-07-23T10:47:10;5.53;;;3.97;;
67861;SDS011;54665;51.462;6.698;2022-07-23T10:49:48;3.93;;;2.80;;
67861;SDS011;54665;51.462;6.698;2022-07-23T10:54:39;3.90;;;2.27;;
67861;SDS011;54665;51.462;6.698;2022-07-23T10:57:10;2.30;;;1.55;;
67861;SDS011;54665;51.462;6.698;2022-07-23T11:02:30;3.33;;;2.03;;
67861;SDS011;54665;51.462;6.698;2022-07-23T11:04:59;3.03;;;1.87;;
67861;SDS011;54665;51.462;6.698;2022-07-23T11:07:26;3.10;;;1.90;;
67861;SDS011;54665;51.462;6.698;2022-07-23T11:09:51;3.92;;;2.40;;
67861;SDS011;54665;51.462;6.698;2022-07-23T11:25:04;4.03;;;2.25;;
67861;SDS011;54665;51.462;6.698;2022-07-23T11:27:37;3.28;;;2.20;;
67861;SDS011;54665;51.462;6.698;2022-07-23T11:30:03;3.93;;;2.33;;
67861;SDS011;54665;51.462;6.698;2022-07-23T11:32:39;3.40;;;2.20;;
67861;SDS011;54665;51.462;6.698;2022-07-23T11:35:18;4.20;;;2.30;;
67861;SDS011;54665;51.462;6.698;2022-07-23T11:37:51;3.97;;;2.40;;
67861;SDS011;54665;51.462;6.698;2022-07-23T11:40:24;4.32;;;2.30;;
67861;SDS011;54665;51.462;6.698;2022-07-23T11:43:00;5.00;;;2.20;;
67861;SDS011;54665;51.462;6.698;2022-07-23T11:45:34;4.22;;;1.90;;
67861;SDS011;54665;51.462;6.698;2022-07-23T11:48:02;2.78;;;1.90;;
67861;SDS011;54665;51.462;6.698;2022-07-23T11:50:30;2.65;;;1.90;;
67861;SDS011;54665;51.462;6.698;2022-07-23T11:52:56;3.50;;;2.10;;
67861;SDS011;54665;51.462;6.698;2022-07-23T11:55:21;3.17;;;1.70;;
67861;SDS011;54665;51.462;6.698;2022-07-23T11:57:47;4.88;;;2.70;;
67861;SDS011;54665;51.462;6.698;2022-07-23T12:00:19;3.72;;;2.50;;
67861;SDS011;54665;51.462;6.698;2022-07-23T12:02:47;2.95;;;2.03;;
67861;SDS011;54665;51.462;6.698;2022-07-23T12:05:24;2.57;;;1.80;;
67861;SDS011;54665;51.462;6.698;2022-07-23T12:07:52;2.15;;;1.65;;
67861;SDS011;54665;51.462;6.698;2022-07-23T12:10:23;4.03;;;1.92;;
67861;SDS011;54665;51.462;6.698;2022-07-23T12:13:00;4.22;;;1.90;;
67861;SDS011;54665;51.462;6.698;2022-07-23T12:15:35;3.95;;;2.10;;
67861;SDS011;54665;51.462;6.698;2022-07-23T12:18:04;5.97;;;1.90;;
67861;SDS011;54665;51.462;6.698;2022-07-23T12:20:34;4.88;;;3.22;;
67861;SDS011;54665;51.462;6.698;2022-07-23T12:23:08;2.83;;;1.90;;
67861;SDS011;54665;51.462;6.698;2022-07-23T12:25:36;3.63;;;1.98;;
67861;SDS011;54665;51.462;6.698;2022-07-23T12:28:08;3.95;;;1.92;;
67861;SDS011;54665;51.462;6.698;2022-07-23T12:30:51;2.40;;;1.70;;
67861;SDS011;54665;51.462;6.698;2022-07-23T12:35:52;3.30;;;1.90;;
67861;SDS011;54665;51.462;6.698;2022-07-23T12:38:20;3.15;;;1.77;;
67861;SDS011;54665;51.462;6.698;2022-07-23T12:48:25;2.45;;;1.90;;
67861;SDS011;54665;51.462;6.698;2022-07-23T12:50:57;4.03;;;2.00;;
67861;SDS011;54665;51.462;6.698;2022-07-23T12:55:51;2.45;;;1.77;;
67861;SDS011;54665;51.462;6.698;2022-07-23T12:58:24;2.30;;;1.80;;
67861;SDS011;54665;51.462;6.698;2022-07-23T13:00:58;3.20;;;1.80;;
67861;SDS011;54665;51.462;6.698;2022-07-23T13:03:32;3.22;;;2.15;;
67861;SDS011;54665;51.462;6.698;2022-07-23T13:06:00;3.88;;;1.90;;
67861;SDS011;54665;51.462;6.698;2022-07-23T13:08:28;3.40;;;2.00;;
67861;SDS011;54665;51.462;6.698;2022-07-23T13:10:54;2.67;;;1.97;;
67861;SDS011;54665;51.462;6.698;2022-07-23T13:13:24;2.80;;;2.03;;
67861;SDS011;54665;51.462;6.698;2022-07-23T13:15:51;3.50;;;2.20;;
67861;SDS011;54665;51.462;6.698;2022-07-23T13:18:17;2.70;;;1.77;;
67861;SDS011;54665;51.462;6.698;2022-07-23T13:20:44;4.70;;;2.03;;
67861;SDS011;54665;51.462;6.698;2022-07-23T13:23:11;3.23;;;2.00;;
67861;SDS011;54665;51.462;6.698;2022-07-23T13:25:36;4.25;;;1.95;;
67861;SDS011;54665;51.462;6.698;2022-07-23T13:28:02;4.10;;;2.30;;
67861;SDS011;54665;51.462;6.698;2022-07-23T13:30:28;3.27;;;2.10;;
67861;SDS011;54665;51.462;6.698;2022-07-23T13:32:54;5.13;;;2.35;;
67861;SDS011;54665;51.462;6.698;2022-07-23T13:35:19;5.67;;;2.53;;
67861;SDS011;54665;51.462;6.698;2022-07-23T13:37:45;4.80;;;2.40;;
67861;SDS011;54665;51.462;6.698;2022-07-23T13:40:10;4.65;;;2.30;;
67861;SDS011;54665;51.462;6.698;2022-07-23T13:42:36;4.27;;;2.70;;
67861;SDS011;54665;51.462;6.698;2022-07-23T13:45:03;4.03;;;2.30;;
67861;SDS011;54665;51.462;6.698;2022-07-23T13:47:30;2.97;;;2.13;;
67861;SDS011;54665;51.462;6.698;2022-07-23T13:49:55;4.60;;;2.75;;
67861;SDS011;54665;51.462;6.698;2022-07-23T13:52:21;5.07;;;2.83;;
67861;SDS011;54665;51.462;6.698;2022-07-23T13:54:46;4.63;;;2.90;;
67861;SDS011;54665;51.462;6.698;2022-07-23T13:57:12;4.83;;;3.00;;
67861;SDS011;54665;51.462;6.698;2022-07-23T13:59:37;4.85;;;2.85;;
67861;SDS011;54665;51.462;6.698;2022-07-23T14:02:03;5.40;;;2.80;;
67861;SDS011;54665;51.462;6.698;2022-07-23T14:04:29;4.75;;;2.50;;
67861;SDS011;54665;51.462;6.698;2022-07-23T14:06:55;5.45;;;2.17;;
67861;SDS011;54665;51.462;6.698;2022-07-23T14:09:21;4.73;;;2.20;;
67861;SDS011;54665;51.462;6.698;2022-07-23T14:11:47;3.70;;;2.42;;
67861;SDS011;54665;51.462;6.698;2022-07-23T14:14:13;3.63;;;2.10;;
67861;SDS011;54665;51.462;6.698;2022-07-23T14:16:38;4.15;;;2.30;;
67861;SDS011;54665;51.462;6.698;2022-07-23T14:19:04;3.77;;;2.40;;
67861;SDS011;54665;51.462;6.698;2022-07-23T14:21:30;4.10;;;2.33;;
67861;SDS011;54665;51.462;6.698;2022-07-23T14:23:55;3.80;;;2.50;;
67861;SDS011;54665;51.462;6.698;2022-07-23T14:26:21;5.77;;;2.73;;
67861;SDS011;54665;51.462;6.698;2022-07-23T14:28:46;3.15;;;2.35;;
67861;SDS011;54665;51.462;6.698;2022-07-23T14:31:12;3.67;;;2.10;;
67861;SDS011;54665;51.462;6.698;2022-07-23T14:33:38;3.72;;;2.35;;
67861;SDS011;54665;51.462;6.698;2022-07-23T14:36:03;3.67;;;2.30;;
67861;SDS011;54665;51.462;6.698;2022-07-23T14:38:29;5.27;;;2.67;;
67861;SDS011;54665;51.462;6.698;2022-07-23T14:40:56;3.45;;;2.60;;
67861;SDS011;54665;51.462;6.698;2022-07-23T14:43:22;3.92;;;2.47;;
67861;SDS011;54665;51.462;6.698;2022-07-23T14:45:47;3.27;;;2.13;;
67861;SDS011;54665;51.462;6.698;2022-07-23T14:48:13;4.30;;;2.33;;
67861;SDS011;54665;51.462;6.698;2022-07-23T14:50:39;4.63;;;2.57;;
67861;SDS011;54665;51.462;6.698;2022-07-23T14:53:04;4.85;;;2.28;;
67861;SDS011;54665;51.462;6.698;2022-07-23T14:55:31;6.97;;;2.60;;
67861;SDS011;54665;51.462;6.698;2022-07-23T14:57:57;3.70;;;2.53;;
67861;SDS011;54665;51.462;6.698;2022-07-23T15:00:22;7.30;;;4.90;;
67861;SDS011;54665;51.462;6.698;2022-07-23T15:02:47;6.25;;;3.85;;
67861;SDS011;54665;51.462;6.698;2022-07-23T15:05:13;6.60;;;3.07;;
67861;SDS011;54665;51.462;6.698;2022-07-23T15:07:38;4.97;;;3.17;;
67861;SDS011;54665;51.462;6.698;2022-07-23T15:10:04;4.05;;;2.67;;
67861;SDS011;54665;51.462;6.698;2022-07-23T15:12:30;4.13;;;2.40;;
67861;SDS011;54665;51.462;6.698;2022-07-23T15:14:55;5.70;;;2.77;;
67861;SDS011;54665;51.462;6.698;2022-07-23T15:17:21;4.47;;;2.73;;
67861;SDS011;54665;51.462;6.698;2022-07-23T15:19:46;4.37;;;2.47;;
67861;SDS011;54665;51.462;6.698;2022-07-23T15:22:12;5.00;;;2.80;;
67861;SDS011;54665;51.462;6.698;2022-07-23T15:24:37;4.80;;;2.75;;
67861;SDS011;54665;51.462;6.698;2022-07-23T15:27:02;3.57;;;2.43;;
67861;SDS011;54665;51.462;6.698;2022-07-23T15:29:28;4.10;;;2.30;;
67861;SDS011;54665;51.462;6.698;2022-07-23T15:31:54;3.88;;;2.38;;